createdAt,value
2023-02-09T00:01:21.295Z,-1.71
2023-02-09T00:03:48.865Z,-1.09
2023-02-09T00:06:18.304Z,-1.66
2023-02-09T00:08:45.586Z,-1.60
2023-02-09T00:11:21.741Z,-1.20
2023-02-09T00:13:48.581Z,-1.07
2023-02-09T00:16:16.395Z,-0.96
2023-02-09T00:18:43.138Z,-1.00
2023-02-09T00:21:11.284Z,-1.12
2023-02-09T00:23:41.053Z,-1.04
2023-02-09T00:26:10.695Z,-2.11
2023-02-09T00:28:39.108Z,-1.87
2023-02-09T00:31:11.320Z,-1.79
2023-02-09T00:33:40.723Z,-1.51
2023-02-09T00:36:10.818Z,-1.22
2023-02-09T00:38:37.713Z,-1.34
2023-02-09T00:41:05.263Z,-1.16
2023-02-09T00:43:32.270Z,-1.18
2023-02-09T00:45:59.824Z,-1.36
2023-02-09T00:48:27.161Z,-1.56
2023-02-09T00:50:54.206Z,-1.28
2023-02-09T00:53:21.818Z,-1.27
2023-02-09T00:55:49.437Z,-1.50
2023-02-09T00:58:16.317Z,-1.34
2023-02-09T01:00:43.572Z,-1.39
2023-02-09T01:03:11.361Z,-1.17
2023-02-09T01:05:42.937Z,-1.22
2023-02-09T01:08:11.760Z,-1.02
2023-02-09T01:10:39.680Z,-1.08
2023-02-09T01:13:06.534Z,-1.10
2023-02-09T01:15:33.378Z,-1.11
2023-02-09T01:18:00.363Z,-0.96
2023-02-09T01:20:27.725Z,-1.06
2023-02-09T01:22:54.617Z,-0.93
2023-02-09T01:25:21.488Z,-0.87
2023-02-09T01:27:48.748Z,-1.00
2023-02-09T01:30:15.707Z,-0.92
2023-02-09T01:32:45.960Z,-1.02
2023-02-09T01:35:12.848Z,-0.99
2023-02-09T01:37:39.866Z,-1.02
2023-02-09T01:40:08.136Z,-1.06
2023-02-09T01:42:39.050Z,-1.12
2023-02-09T01:45:31.948Z,-1.12
2023-02-09T01:48:14.081Z,-1.27
2023-02-09T01:50:45.844Z,-1.21
2023-02-09T01:53:13.253Z,-1.28
2023-02-09T01:55:46.661Z,-1.00
2023-02-09T01:58:17.843Z,-1.34
2023-02-09T02:00:46.312Z,-1.21
2023-02-09T02:03:18.637Z,-1.17
2023-02-09T02:05:49.002Z,-1.29
2023-02-09T02:08:26.556Z,-1.41
2023-02-09T02:10:54.399Z,-1.52
2023-02-09T02:13:21.393Z,-1.55
2023-02-09T02:16:11.101Z,-1.27
2023-02-09T02:18:53.230Z,-1.28
2023-02-09T02:21:37.678Z,-1.38
2023-02-09T02:24:28.261Z,-1.66
2023-02-09T02:26:58.745Z,-1.36
2023-02-09T02:29:35.533Z,-1.61
2023-02-09T02:32:24.343Z,-1.73
2023-02-09T02:34:55.911Z,-1.75
2023-02-09T02:37:37.374Z,-1.74
2023-02-09T02:40:12.409Z,-1.89
2023-02-09T02:43:23.582Z,-2.04
2023-02-09T02:46:05.405Z,-1.98
2023-02-09T02:48:41.349Z,-1.94
2023-02-09T02:51:36.578Z,-1.65
2023-02-09T02:54:09.497Z,-1.68
2023-02-09T02:56:41.725Z,-1.57
2023-02-09T02:59:14.210Z,-1.56
2023-02-09T03:01:46.362Z,-1.77
2023-02-09T03:04:15.437Z,-1.79
2023-02-09T03:06:42.165Z,-1.74
2023-02-09T03:09:09.151Z,-1.77
2023-02-09T03:11:49.330Z,-2.03
2023-02-09T03:14:35.276Z,-1.83
2023-02-09T03:17:30.918Z,-1.79
2023-02-09T03:20:13.231Z,-1.81
2023-02-09T03:22:48.170Z,-1.80
2023-02-09T03:25:34.972Z,-1.82
2023-02-09T03:28:14.310Z,-1.86
2023-02-09T03:30:42.536Z,-1.87
2023-02-09T03:33:24.467Z,-1.77
2023-02-09T03:35:55.612Z,-1.85
2023-02-09T03:38:23.068Z,-2.27
2023-02-09T03:40:50.053Z,-1.93
2023-02-09T03:43:16.869Z,-1.92
2023-02-09T03:45:43.632Z,-2.14
2023-02-09T03:48:11.329Z,-2.02
2023-02-09T03:50:38.565Z,-1.88
2023-02-09T03:53:06.568Z,-1.81
2023-02-09T03:55:34.343Z,-1.91
2023-02-09T03:58:01.077Z,-1.97
2023-02-09T04:00:28.306Z,-2.13
2023-02-09T04:02:55.077Z,-2.07
2023-02-09T04:05:23.046Z,-1.91
2023-02-09T04:07:49.972Z,-2.06
2023-02-09T04:10:16.806Z,-1.95
2023-02-09T04:12:43.537Z,-2.29
2023-02-09T04:15:11.405Z,-1.98
2023-02-09T04:17:38.258Z,-2.09
2023-02-09T04:20:05.632Z,-2.02
2023-02-09T04:22:32.357Z,-2.04
2023-02-09T04:24:59.009Z,-2.06
2023-02-09T04:27:27.196Z,-2.17
2023-02-09T04:29:54.094Z,-1.95
2023-02-09T04:32:20.939Z,-1.94
2023-02-09T04:34:47.644Z,-2.08
2023-02-09T04:37:14.463Z,-1.90
2023-02-09T04:39:41.278Z,-1.98
2023-02-09T04:42:08.190Z,-2.01
2023-02-09T04:44:34.918Z,-2.06
2023-02-09T04:47:01.720Z,-2.20
2023-02-09T04:49:28.441Z,-2.22
2023-02-09T04:51:55.286Z,-2.37
2023-02-09T04:54:22.015Z,-2.51
2023-02-09T04:57:08.898Z,-2.31
2023-02-09T04:59:39.233Z,-2.11
2023-02-09T05:02:06.043Z,-2.03
2023-02-09T05:04:32.891Z,-2.11
2023-02-09T05:06:59.810Z,-2.33
2023-02-09T05:09:27.650Z,-2.19
2023-02-09T05:11:54.491Z,-2.03
2023-02-09T05:14:21.328Z,-2.46
2023-02-09T05:16:48.284Z,-2.24
2023-02-09T05:19:15.053Z,-2.31
2023-02-09T05:21:41.699Z,-2.24
2023-02-09T05:24:08.496Z,-2.16
2023-02-09T05:26:35.548Z,-2.45
2023-02-09T05:29:02.729Z,-2.09
2023-02-09T05:31:29.631Z,-1.99
2023-02-09T05:33:56.437Z,-2.39
2023-02-09T05:36:25.256Z,-2.31
2023-02-09T05:38:51.998Z,-2.15
2023-02-09T05:41:37.193Z,-1.95
2023-02-09T05:44:04.394Z,-1.97
2023-02-09T05:46:31.580Z,-2.09
2023-02-09T05:48:58.491Z,-1.99
2023-02-09T05:51:26.315Z,-1.78
2023-02-09T05:53:54.316Z,-1.75
2023-02-09T05:56:22.647Z,-2.01
2023-02-09T05:59:08.122Z,-1.87
2023-02-09T06:01:34.901Z,-1.73
2023-02-09T06:04:01.744Z,-1.70
2023-02-09T06:06:28.868Z,-1.78
2023-02-09T06:08:55.787Z,-1.67
2023-02-09T06:11:22.618Z,-1.83
2023-02-09T06:13:49.701Z,-1.78
2023-02-09T06:16:16.476Z,-1.77
2023-02-09T06:18:43.285Z,-1.78
2023-02-09T06:21:11.684Z,-1.49
2023-02-09T06:23:39.384Z,-1.70
2023-02-09T06:26:13.473Z,-1.33
2023-02-09T06:28:40.553Z,-1.48
2023-02-09T06:31:07.974Z,-1.39
2023-02-09T06:33:36.415Z,-1.16
2023-02-09T06:36:04.527Z,-1.04
2023-02-09T06:38:32.718Z,-0.92
2023-02-09T06:40:59.413Z,-0.99
2023-02-09T06:43:26.614Z,-0.81
2023-02-09T06:45:53.749Z,-0.74
2023-02-09T06:48:20.784Z,-0.62
2023-02-09T06:50:48.196Z,-0.71
2023-02-09T06:53:17.226Z,-0.46
2023-02-09T06:55:44.036Z,-0.32
2023-02-09T06:58:10.792Z,-0.33
2023-02-09T07:00:37.513Z,-0.18
2023-02-09T07:03:04.487Z,-0.70
2023-02-09T07:05:31.653Z,-0.33
2023-02-09T07:07:58.526Z,-0.32
2023-02-09T07:10:25.308Z,-0.34
2023-02-09T07:12:52.255Z,-0.06
2023-02-09T07:15:19.203Z,-0.33
2023-02-09T07:17:46.089Z,-0.31
2023-02-09T07:20:13.139Z,-0.11
2023-02-09T07:22:40.960Z,0.23
2023-02-09T07:25:08.201Z,0.28
2023-02-09T07:27:35.067Z,0.35
2023-02-09T07:30:02.056Z,0.53
2023-02-09T07:32:28.771Z,0.64
2023-02-09T07:34:55.483Z,0.76
2023-02-09T07:37:22.247Z,1.12
2023-02-09T07:39:49.396Z,1.03
2023-02-09T07:42:16.297Z,1.33
2023-02-09T07:44:57.803Z,1.07
2023-02-09T07:47:24.719Z,1.47
2023-02-09T07:49:51.458Z,1.57
2023-02-09T07:52:18.306Z,1.49
2023-02-09T07:54:45.030Z,1.39
2023-02-09T07:57:13.470Z,1.75
2023-02-09T07:59:40.251Z,2.10
2023-02-09T08:02:16.976Z,2.09
2023-02-09T08:04:44.753Z,2.21
2023-02-09T08:07:11.511Z,1.43
2023-02-09T08:09:38.374Z,1.99
2023-02-09T08:12:06.076Z,2.29
2023-02-09T08:14:42.943Z,2.63
2023-02-09T08:17:23.249Z,2.82
2023-02-09T08:20:03.286Z,2.74
2023-02-09T08:22:33.783Z,2.82
2023-02-09T08:25:03.072Z,2.83
2023-02-09T08:27:31.273Z,2.93
2023-02-09T08:29:58.841Z,3.24
2023-02-09T08:32:25.728Z,3.27
2023-02-09T08:34:52.560Z,3.52
2023-02-09T08:37:19.450Z,3.20
2023-02-09T08:39:46.185Z,3.53
2023-02-09T08:42:13.082Z,3.85
2023-02-09T08:44:39.853Z,4.02
2023-02-09T08:47:06.678Z,3.47
2023-02-09T08:49:33.386Z,3.29
2023-02-09T08:52:00.157Z,3.86
2023-02-09T08:54:27.130Z,3.95
2023-02-09T08:56:53.856Z,4.17
2023-02-09T08:59:22.014Z,4.11
2023-02-09T09:01:48.694Z,4.70
2023-02-09T09:04:15.512Z,4.71
2023-02-09T09:06:42.244Z,4.56
2023-02-09T09:09:09.218Z,4.66
2023-02-09T09:11:36.734Z,5.09
2023-02-09T09:14:03.464Z,5.21
2023-02-09T09:16:30.616Z,5.18
2023-02-09T09:18:57.448Z,5.30
2023-02-09T09:21:24.557Z,5.04
2023-02-09T09:23:51.300Z,5.14
2023-02-09T09:26:18.374Z,5.09
2023-02-09T09:28:45.558Z,5.48
2023-02-09T09:31:16.485Z,5.67
2023-02-09T09:33:44.550Z,6.09
2023-02-09T09:36:12.281Z,5.95
2023-02-09T09:38:39.675Z,6.20
2023-02-09T09:41:18.914Z,6.95
2023-02-09T09:43:45.834Z,7.11
2023-02-09T09:46:19.053Z,7.68
2023-02-09T09:48:49.463Z,7.62
2023-02-09T09:51:28.953Z,7.92
2023-02-09T09:53:59.413Z,8.21
2023-02-09T09:56:29.382Z,8.34
2023-02-09T09:58:57.029Z,7.93
2023-02-09T10:01:26.289Z,7.70
2023-02-09T10:03:53.354Z,7.67
2023-02-09T10:06:22.600Z,7.05
2023-02-09T10:08:59.734Z,6.79
2023-02-09T10:11:36.633Z,6.94
2023-02-09T10:14:03.449Z,7.11
2023-02-09T10:16:34.624Z,6.94
2023-02-09T10:19:05.148Z,6.31
2023-02-09T10:21:35.907Z,6.60
2023-02-09T10:24:10.180Z,6.02
2023-02-09T10:26:40.082Z,5.53
2023-02-09T10:29:12.992Z,6.33
2023-02-09T10:31:47.077Z,7.26
2023-02-09T10:34:18.128Z,7.64
2023-02-09T10:36:50.235Z,7.57
2023-02-09T10:39:25.568Z,6.98
2023-02-09T10:41:54.570Z,7.43
2023-02-09T10:44:27.327Z,7.00
2023-02-09T10:47:23.554Z,6.80
2023-02-09T10:50:05.687Z,7.58
2023-02-09T10:52:36.749Z,7.68
2023-02-09T10:55:16.990Z,7.82
2023-02-09T10:57:43.902Z,6.91
2023-02-09T11:00:16.718Z,7.22
2023-02-09T11:02:51.716Z,7.35
2023-02-09T11:05:21.446Z,7.34
2023-02-09T11:08:10.346Z,7.85
2023-02-09T11:10:43.162Z,7.67
2023-02-09T11:13:23.101Z,7.40
2023-02-09T11:16:11.873Z,7.17
2023-02-09T11:18:41.599Z,7.39
2023-02-09T11:21:27.474Z,7.18
2023-02-09T11:24:18.824Z,6.99
2023-02-09T11:26:59.044Z,7.27
2023-02-09T11:29:32.219Z,7.30
2023-02-09T11:32:09.720Z,7.16
2023-02-09T11:34:51.831Z,7.41
2023-02-09T11:37:25.268Z,7.72
2023-02-09T11:40:27.826Z,7.16
2023-02-09T11:43:06.709Z,7.73
2023-02-09T11:45:39.747Z,7.92
2023-02-09T11:48:30.407Z,7.68
2023-02-09T11:51:20.102Z,7.70
2023-02-09T11:54:14.958Z,7.71
2023-02-09T11:56:47.439Z,7.65
2023-02-09T11:59:14.336Z,7.86
2023-02-09T12:01:56.461Z,8.33
2023-02-09T12:04:34.525Z,8.03
2023-02-09T12:07:35.597Z,7.91
2023-02-09T12:10:24.133Z,8.91
2023-02-09T12:13:13.416Z,9.45
2023-02-09T12:16:18.224Z,9.51
2023-02-09T12:18:46.078Z,9.80
2023-02-09T12:21:13.582Z,9.93
2023-02-09T12:23:45.185Z,10.41
2023-02-09T12:26:12.118Z,11.05
2023-02-09T12:28:46.004Z,11.78
2023-02-09T12:31:20.226Z,12.11
2023-02-09T12:33:47.312Z,12.35
2023-02-09T12:36:14.024Z,12.12
2023-02-09T12:38:56.932Z,13.15
2023-02-09T12:41:34.682Z,13.01
2023-02-09T12:44:21.781Z,12.78
2023-02-09T12:46:55.297Z,13.32
2023-02-09T12:49:33.216Z,14.41
2023-02-09T12:52:02.807Z,14.46
2023-02-09T12:54:48.482Z,15.28
2023-02-09T12:57:15.370Z,14.91
2023-02-09T12:59:42.113Z,14.96
2023-02-09T13:02:11.674Z,15.51
2023-02-09T13:05:18.658Z,16.02
2023-02-09T13:08:02.470Z,16.20
2023-02-09T13:10:35.822Z,16.46
2023-02-09T13:13:11.502Z,16.74
2023-02-09T13:16:06.311Z,18.25
2023-02-09T13:18:33.859Z,17.40
2023-02-09T13:21:15.539Z,16.82
2023-02-09T13:23:59.130Z,17.15
2023-02-09T13:26:28.236Z,16.60
2023-02-09T13:29:21.384Z,16.25
2023-02-09T13:31:54.115Z,17.26
2023-02-09T13:34:42.729Z,17.28
2023-02-09T13:37:18.090Z,17.16
2023-02-09T13:39:45.334Z,15.21
2023-02-09T13:42:24.382Z,16.09
2023-02-09T13:44:53.936Z,16.26
2023-02-09T13:47:20.825Z,16.63
2023-02-09T13:50:01.216Z,16.38
2023-02-09T13:52:38.835Z,16.00
2023-02-09T13:55:24.505Z,16.05
2023-02-09T13:58:03.518Z,16.46
2023-02-09T14:00:37.849Z,15.93
2023-02-09T14:03:18.371Z,16.33
2023-02-09T14:06:02.803Z,16.29
2023-02-09T14:08:32.166Z,15.60
2023-02-09T14:11:08.106Z,14.63
2023-02-09T14:13:41.804Z,14.45
2023-02-09T14:16:09.964Z,14.72
2023-02-09T14:18:45.829Z,14.57
2023-02-09T14:21:15.711Z,11.90
2023-02-09T14:23:48.041Z,12.55
2023-02-09T14:26:15.192Z,12.11
2023-02-09T14:28:45.436Z,11.78
2023-02-09T14:31:24.852Z,11.24
2023-02-09T14:33:55.237Z,11.06
2023-02-09T14:36:32.426Z,10.44
2023-02-09T14:39:12.937Z,10.30
2023-02-09T14:41:40.853Z,9.61
2023-02-09T14:44:07.430Z,8.95
2023-02-09T14:46:55.118Z,8.37
2023-02-09T14:49:22.751Z,8.85
2023-02-09T14:51:56.669Z,8.77
2023-02-09T14:54:26.795Z,8.49
2023-02-09T14:56:56.442Z,8.45
2023-02-09T14:59:24.210Z,8.57
2023-02-09T15:01:54.146Z,8.45
2023-02-09T15:04:21.383Z,8.20
2023-02-09T15:06:52.889Z,8.28
2023-02-09T15:09:29.234Z,7.93
2023-02-09T15:12:05.097Z,7.13
2023-02-09T15:14:45.744Z,7.52
2023-02-09T15:17:25.685Z,7.61
2023-02-09T15:19:55.886Z,7.47
2023-02-09T15:22:23.471Z,7.31
2023-02-09T15:24:54.219Z,7.29
2023-02-09T15:27:29.468Z,7.39
2023-02-09T15:29:59.418Z,7.17
2023-02-09T15:32:28.240Z,7.27
2023-02-09T15:34:55.194Z,7.34
2023-02-09T15:37:25.845Z,7.04
2023-02-09T15:39:59.658Z,7.06
2023-02-09T15:42:45.076Z,6.79
2023-02-09T15:45:39.875Z,6.66
2023-02-09T15:48:08.451Z,6.75
2023-02-09T15:50:38.926Z,6.56
2023-02-09T15:53:09.005Z,6.44
2023-02-09T15:55:37.009Z,6.47
2023-02-09T15:58:04.971Z,6.33
2023-02-09T16:00:31.986Z,6.08
2023-02-09T16:03:01.478Z,6.38
2023-02-09T16:05:29.825Z,5.92
2023-02-09T16:07:58.706Z,5.58
2023-02-09T16:10:27.628Z,5.83
2023-02-09T16:12:54.941Z,5.20
2023-02-09T16:15:26.247Z,5.46
2023-02-09T16:17:53.062Z,5.78
2023-02-09T16:20:20.505Z,5.59
2023-02-09T16:22:49.342Z,5.60
2023-02-09T16:25:25.772Z,5.60
2023-02-09T16:27:53.982Z,5.56
2023-02-09T16:30:26.353Z,5.20
2023-02-09T16:32:53.864Z,5.35
2023-02-09T16:35:22.138Z,4.86
2023-02-09T16:37:51.036Z,5.18
2023-02-09T16:40:31.474Z,5.44
2023-02-09T16:43:01.049Z,5.26
2023-02-09T16:45:30.517Z,5.30
2023-02-09T16:47:59.379Z,5.44
2023-02-09T16:50:32.931Z,5.07
2023-02-09T16:53:02.683Z,4.85
2023-02-09T16:55:34.907Z,4.99
2023-02-09T16:58:04.365Z,4.85
2023-02-09T17:00:35.717Z,4.80
2023-02-09T17:03:16.413Z,4.82
2023-02-09T17:05:49.113Z,4.44
2023-02-09T17:08:21.090Z,4.68
2023-02-09T17:10:50.295Z,4.79
2023-02-09T17:13:23.332Z,4.78
2023-02-09T17:15:53.838Z,4.82
2023-02-09T17:18:23.902Z,4.86
2023-02-09T17:20:55.245Z,4.78
2023-02-09T17:23:24.190Z,4.84
2023-02-09T17:25:54.875Z,4.62
2023-02-09T17:28:24.439Z,4.68
2023-02-09T17:30:59.789Z,4.79
2023-02-09T17:33:29.989Z,4.77
2023-02-09T17:36:24.229Z,4.89
2023-02-09T17:38:46.961Z,4.88
2023-02-09T17:41:34.012Z,4.95
2023-02-09T17:44:39.171Z,4.81
2023-02-09T17:47:16.706Z,4.71
2023-02-09T17:49:44.178Z,4.39
2023-02-09T17:52:18.820Z,3.59
2023-02-09T17:54:46.496Z,3.97
2023-02-09T17:57:17.455Z,4.22
2023-02-09T17:59:44.355Z,4.40
2023-02-09T18:02:17.101Z,4.32
2023-02-09T18:04:44.296Z,4.42
2023-02-09T18:07:12.723Z,4.44
2023-02-09T18:09:39.483Z,4.11
2023-02-09T18:12:24.762Z,4.21
2023-02-09T18:14:52.077Z,4.00
2023-02-09T18:17:19.551Z,3.94
2023-02-09T18:19:46.387Z,3.83
2023-02-09T18:22:17.221Z,3.99
2023-02-09T18:24:44.350Z,3.75
2023-02-09T18:27:15.062Z,3.76
2023-02-09T18:29:41.789Z,3.59
2023-02-09T18:32:14.598Z,3.63
2023-02-09T18:34:41.584Z,3.59
2023-02-09T18:37:08.590Z,3.69
2023-02-09T18:39:38.670Z,3.63
2023-02-09T18:42:07.266Z,3.93
2023-02-09T18:44:34.464Z,3.84
2023-02-09T18:47:02.025Z,3.67
2023-02-09T18:49:29.191Z,3.77
2023-02-09T18:51:57.093Z,3.81
2023-02-09T18:54:24.013Z,3.64
2023-02-09T18:56:52.772Z,3.53
2023-02-09T18:59:19.852Z,3.62
2023-02-09T19:01:46.945Z,3.62
2023-02-09T19:04:14.485Z,3.58
2023-02-09T19:06:41.334Z,3.21
2023-02-09T19:09:08.442Z,3.39
2023-02-09T19:11:35.156Z,3.23
2023-02-09T19:14:20.909Z,3.09
2023-02-09T19:16:48.124Z,3.30
2023-02-09T19:19:16.400Z,3.38
2023-02-09T19:21:43.401Z,3.42
2023-02-09T19:24:10.192Z,3.44
2023-02-09T19:26:37.011Z,3.42
2023-02-09T19:29:04.091Z,3.29
2023-02-09T19:31:31.017Z,3.36
2023-02-09T19:33:58.094Z,3.33
2023-02-09T19:36:28.159Z,3.29
2023-02-09T19:38:56.341Z,3.13
2023-02-09T19:41:25.709Z,3.06
2023-02-09T19:43:57.422Z,3.34
2023-02-09T19:46:25.204Z,3.25
2023-02-09T19:48:53.940Z,3.37
2023-02-09T19:51:21.368Z,3.34
2023-02-09T19:53:48.804Z,3.05
2023-02-09T19:56:17.425Z,3.05
2023-02-09T19:58:45.079Z,3.15
2023-02-09T20:01:12.885Z,3.01
2023-02-09T20:03:40.036Z,3.16
2023-02-09T20:06:12.944Z,3.03
2023-02-09T20:08:40.643Z,3.12
2023-02-09T20:11:09.590Z,2.84
2023-02-09T20:13:36.788Z,3.00
2023-02-09T20:16:09.426Z,3.12
2023-02-09T20:18:41.097Z,3.19
2023-02-09T20:21:08.776Z,3.05
2023-02-09T20:23:37.113Z,3.00
2023-02-09T20:26:22.970Z,3.13
2023-02-09T20:28:50.493Z,2.91
2023-02-09T20:31:22.066Z,3.04
2023-02-09T20:33:49.305Z,2.84
2023-02-09T20:36:16.988Z,2.74
2023-02-09T20:38:43.807Z,2.86
2023-02-09T20:41:16.470Z,2.88
2023-02-09T20:44:02.306Z,2.83
2023-02-09T20:46:51.427Z,2.83
2023-02-09T20:49:19.345Z,2.83
2023-02-09T20:51:46.317Z,2.76
2023-02-09T20:54:15.658Z,2.89
2023-02-09T20:56:43.126Z,2.85
2023-02-09T20:59:12.198Z,2.78
2023-02-09T21:01:39.635Z,2.52
2023-02-09T21:04:07.467Z,2.64
2023-02-09T21:06:37.098Z,2.74
2023-02-09T21:09:06.447Z,2.75
2023-02-09T21:11:33.876Z,2.66
2023-02-09T21:14:01.642Z,2.67
2023-02-09T21:16:29.067Z,2.52
2023-02-09T21:18:55.861Z,2.64
2023-02-09T21:21:23.129Z,2.79
2023-02-09T21:23:49.970Z,2.34
2023-02-09T21:26:19.651Z,2.59
2023-02-09T21:28:48.629Z,2.51
2023-02-09T21:31:22.113Z,2.57
2023-02-09T21:33:49.068Z,2.63
2023-02-09T21:36:15.890Z,2.54
2023-02-09T21:38:42.708Z,2.42
2023-02-09T21:41:36.057Z,2.42
2023-02-09T21:44:03.157Z,2.37
2023-02-09T21:46:30.154Z,2.45
2023-02-09T21:48:57.011Z,2.14
2023-02-09T21:51:24.284Z,2.29
2023-02-09T21:53:51.418Z,2.08
2023-02-09T21:56:18.493Z,1.71
2023-02-09T21:58:45.387Z,1.81
2023-02-09T22:01:12.229Z,1.97
2023-02-09T22:03:40.431Z,1.83
2023-02-09T22:06:07.357Z,2.06
2023-02-09T22:08:34.324Z,2.05
2023-02-09T22:11:02.946Z,2.24
2023-02-09T22:13:30.907Z,2.05
2023-02-09T22:15:57.974Z,2.14
2023-02-09T22:18:24.995Z,2.14
2023-02-09T22:20:52.032Z,2.18
2023-02-09T22:23:19.922Z,2.01
2023-02-09T22:25:46.746Z,1.99
2023-02-09T22:28:13.981Z,1.98
2023-02-09T22:30:41.092Z,2.01
2023-02-09T22:33:08.017Z,1.93
2023-02-09T22:35:34.795Z,1.89
2023-02-09T22:38:01.528Z,1.99
2023-02-09T22:40:28.521Z,1.92
2023-02-09T22:42:55.338Z,1.85
2023-02-09T22:45:22.138Z,1.63
2023-02-09T22:47:48.893Z,1.80
2023-02-09T22:50:15.900Z,1.80
2023-02-09T22:52:42.648Z,1.83
2023-02-09T22:55:09.582Z,1.82
2023-02-09T22:57:36.331Z,1.94
2023-02-09T23:00:07.577Z,1.84
2023-02-09T23:02:34.352Z,1.71
2023-02-09T23:05:01.083Z,1.63
2023-02-09T23:07:28.204Z,1.66
2023-02-09T23:09:54.878Z,1.65
2023-02-09T23:12:21.747Z,1.43
2023-02-09T23:14:48.617Z,1.47
2023-02-09T23:17:15.337Z,1.58
2023-02-09T23:19:42.050Z,1.52
2023-02-09T23:22:08.868Z,1.48
2023-02-09T23:24:35.718Z,1.40
2023-02-09T23:27:02.381Z,1.44
2023-02-09T23:29:30.787Z,1.63
2023-02-09T23:31:58.715Z,1.72
2023-02-09T23:34:25.715Z,1.42
2023-02-09T23:36:52.681Z,1.29
2023-02-09T23:39:22.362Z,1.40
2023-02-09T23:41:49.162Z,1.23
2023-02-09T23:44:16.095Z,1.13
2023-02-09T23:46:43.013Z,1.34
2023-02-09T23:49:11.548Z,1.17
2023-02-09T23:51:38.315Z,1.19
2023-02-09T23:54:06.638Z,1.23
2023-02-09T23:56:37.236Z,1.29
2023-02-09T23:59:06.896Z,1.22
